sensor_id;sensor_type;location;lat;lon;timestamp;pressure;altitude;pressure_sealevel;temperature;humidity
2841;BME280;53423;49.224;12.074;2023-03-23T00:01:57;97223.63;;;9.81;61.96
2841;BME280;53423;49.224;12.074;2023-03-23T00:04:23;97228.75;;;9.75;62.48
2841;BME280;53423;49.224;12.074;2023-03-23T00:06:51;97231.53;;;9.73;62.77
2841;BME280;53423;49.224;12.074;2023-03-23T00:09:19;97228.25;;;9.71;62.93
2841;BME280;53423;49.224;12.074;2023-03-23T00:11:50;97224.81;;;9.79;62.90
2841;BME280;53423;49.224;12.074;2023-03-23T00:14:22;97225.47;;;9.81;62.79
2841;BME280;53423;49.224;12.074;2023-03-23T00:16:50;97222.72;;;9.66;63.16
2841;BME280;53423;49.224;12.074;2023-03-23T00:19:17;97229.63;;;9.67;62.90
2841;BME280;53423;49.224;12.074;2023-03-23T00:21:46;97216.41;;;9.53;63.74
2841;BME280;53423;49.224;12.074;2023-03-23T00:24:14;97223.75;;;9.49;64.08
2841;BME280;53423;49.224;12.074;2023-03-23T00:26:45;97212.47;;;9.57;63.76
2841;BME280;53423;49.224;12.074;2023-03-23T00:29:14;97224.06;;;9.62;63.78
2841;BME280;53423;49.224;12.074;2023-03-23T00:31:42;97221.16;;;9.49;64.06
2841;BME280;53423;49.224;12.074;2023-03-23T00:34:13;97223.06;;;9.63;63.52
2841;BME280;53423;49.224;12.074;2023-03-23T00:36:45;97218.97;;;9.69;63.61
2841;BME280;53423;49.224;12.074;2023-03-23T00:39:12;97226.66;;;9.70;63.85
2841;BME280;53423;49.224;12.074;2023-03-23T00:41:41;97219.63;;;9.71;63.82
2841;BME280;53423;49.224;12.074;2023-03-23T00:44:10;97221.75;;;9.67;63.78
2841;BME280;53423;49.224;12.074;2023-03-23T00:46:42;97226.50;;;9.64;64.22
2841;BME280;53423;49.224;12.074;2023-03-23T00:49:11;97220.66;;;9.54;64.52
2841;BME280;53423;49.224;12.074;2023-03-23T00:51:39;97219.19;;;9.51;64.58
2841;BME280;53423;49.224;12.074;2023-03-23T00:54:06;97212.84;;;9.46;64.26
2841;BME280;53423;49.224;12.074;2023-03-23T00:56:33;97218.59;;;9.33;64.97
2841;BME280;53423;49.224;12.074;2023-03-23T00:59:00;97213.38;;;9.33;64.78
2841;BME280;53423;49.224;12.074;2023-03-23T01:01:28;97212.84;;;9.38;64.81
2841;BME280;53423;49.224;12.074;2023-03-23T01:03:57;97218.06;;;9.54;64.15
2841;BME280;53423;49.224;12.074;2023-03-23T01:06:26;97216.47;;;9.37;64.89
2841;BME280;53423;49.224;12.074;2023-03-23T01:08:54;97216.31;;;9.30;65.19
2841;BME280;53423;49.224;12.074;2023-03-23T01:11:22;97213.56;;;9.24;65.45
2841;BME280;53423;49.224;12.074;2023-03-23T01:13:48;97216.31;;;9.30;65.00
2841;BME280;53423;49.224;12.074;2023-03-23T01:16:15;97211.56;;;9.26;65.09
2841;BME280;53423;49.224;12.074;2023-03-23T01:18:43;97207.03;;;9.20;65.09
2841;BME280;53423;49.224;12.074;2023-03-23T01:21:12;97208.69;;;9.13;65.38
2841;BME280;53423;49.224;12.074;2023-03-23T01:23:40;97208.34;;;9.24;64.92
2841;BME280;53423;49.224;12.074;2023-03-23T01:26:08;97204.94;;;9.15;65.40
2841;BME280;53423;49.224;12.074;2023-03-23T01:28:35;97204.56;;;9.26;65.18
2841;BME280;53423;49.224;12.074;2023-03-23T01:31:03;97203.13;;;9.24;65.16
2841;BME280;53423;49.224;12.074;2023-03-23T01:33:30;97197.09;;;9.15;65.65
2841;BME280;53423;49.224;12.074;2023-03-23T01:36:04;97195.13;;;9.17;65.66
2841;BME280;53423;49.224;12.074;2023-03-23T01:38:32;97191.34;;;9.20;65.13
2841;BME280;53423;49.224;12.074;2023-03-23T01:40:59;97196.56;;;9.20;65.31
2841;BME280;53423;49.224;12.074;2023-03-23T01:43:26;97190.03;;;9.24;65.13
2841;BME280;53423;49.224;12.074;2023-03-23T01:45:53;97181.72;;;9.20;65.17
2841;BME280;53423;49.224;12.074;2023-03-23T01:48:23;97182.38;;;9.06;65.15
2841;BME280;53423;49.224;12.074;2023-03-23T01:50:54;97178.31;;;8.96;65.48
2841;BME280;53423;49.224;12.074;2023-03-23T01:53:28;97172.91;;;9.13;64.94
2841;BME280;53423;49.224;12.074;2023-03-23T01:55:57;97174.06;;;9.03;65.35
2841;BME280;53423;49.224;12.074;2023-03-23T01:58:27;97177.22;;;8.90;65.82
2841;BME280;53423;49.224;12.074;2023-03-23T02:00:55;97175.91;;;8.78;65.59
2841;BME280;53423;49.224;12.074;2023-03-23T02:03:24;97183.88;;;8.93;65.39
2841;BME280;53423;49.224;12.074;2023-03-23T02:05:51;97183.00;;;9.16;65.54
2841;BME280;53423;49.224;12.074;2023-03-23T02:08:19;97192.97;;;9.29;65.28
2841;BME280;53423;49.224;12.074;2023-03-23T02:10:47;97202.31;;;9.15;65.74
2841;BME280;53423;49.224;12.074;2023-03-23T02:13:15;97200.00;;;9.20;65.83
2841;BME280;53423;49.224;12.074;2023-03-23T02:15:48;97197.56;;;9.19;65.71
2841;BME280;53423;49.224;12.074;2023-03-23T02:27:17;97199.34;;;9.26;65.88
2841;BME280;53423;49.224;12.074;2023-03-23T02:30:08;97197.06;;;9.23;65.94
2841;BME280;53423;49.224;12.074;2023-03-23T02:35:38;97199.00;;;9.21;65.91
2841;BME280;53423;49.224;12.074;2023-03-23T02:38:10;97200.97;;;9.27;65.63
2841;BME280;53423;49.224;12.074;2023-03-23T02:40:41;97198.84;;;9.23;65.69
2841;BME280;53423;49.224;12.074;2023-03-23T02:43:12;97195.28;;;9.08;66.23
2841;BME280;53423;49.224;12.074;2023-03-23T02:45:41;97193.84;;;9.05;66.34
2841;BME280;53423;49.224;12.074;2023-03-23T02:48:12;97196.28;;;9.07;66.18
2841;BME280;53423;49.224;12.074;2023-03-23T02:50:43;97196.78;;;9.10;66.77
2841;BME280;53423;49.224;12.074;2023-03-23T02:53:13;97199.25;;;9.04;66.94
2841;BME280;53423;49.224;12.074;2023-03-23T02:55:43;97199.72;;;9.07;66.68
2841;BME280;53423;49.224;12.074;2023-03-23T02:58:11;97198.06;;;9.06;67.70
2841;BME280;53423;49.224;12.074;2023-03-23T03:00:39;97200.38;;;9.01;67.99
2841;BME280;53423;49.224;12.074;2023-03-23T03:03:10;97198.41;;;9.03;67.97
2841;BME280;53423;49.224;12.074;2023-03-23T03:05:44;97203.16;;;9.00;68.54
2841;BME280;53423;49.224;12.074;2023-03-23T03:08:23;97196.28;;;9.07;67.56
2841;BME280;53423;49.224;12.074;2023-03-23T03:10:56;97205.91;;;9.06;67.89
2841;BME280;53423;49.224;12.074;2023-03-23T03:13:33;97197.84;;;9.32;67.07
2841;BME280;53423;49.224;12.074;2023-03-23T03:16:07;97189.88;;;9.25;66.61
2841;BME280;53423;49.224;12.074;2023-03-23T03:18:45;97193.28;;;9.34;67.16
2841;BME280;53423;49.224;12.074;2023-03-23T03:21:16;97182.63;;;9.35;67.27
2841;BME280;53423;49.224;12.074;2023-03-23T03:23:53;97179.16;;;9.43;66.72
2841;BME280;53423;49.224;12.074;2023-03-23T03:26:22;97172.56;;;9.55;66.08
2841;BME280;53423;49.224;12.074;2023-03-23T03:28:52;97180.06;;;9.66;66.19
2841;BME280;53423;49.224;12.074;2023-03-23T03:31:22;97165.16;;;9.66;65.90
2841;BME280;53423;49.224;12.074;2023-03-23T03:33:50;97169.56;;;9.74;66.30
2841;BME280;53423;49.224;12.074;2023-03-23T03:36:21;97164.22;;;9.59;66.11
2841;BME280;53423;49.224;12.074;2023-03-23T03:38:49;97162.13;;;9.55;66.53
2841;BME280;53423;49.224;12.074;2023-03-23T03:41:18;97152.69;;;9.46;67.19
2841;BME280;53423;49.224;12.074;2023-03-23T03:43:45;97154.25;;;9.55;67.32
2841;BME280;53423;49.224;12.074;2023-03-23T03:46:12;97150.75;;;9.70;66.59
2841;BME280;53423;49.224;12.074;2023-03-23T03:48:39;97160.47;;;9.84;65.75
2841;BME280;53423;49.224;12.074;2023-03-23T03:51:06;97156.41;;;9.82;66.23
2841;BME280;53423;49.224;12.074;2023-03-23T03:53:35;97158.84;;;9.61;66.53
2841;BME280;53423;49.224;12.074;2023-03-23T03:56:02;97161.34;;;9.46;67.70
2841;BME280;53423;49.224;12.074;2023-03-23T03:58:30;97164.94;;;9.45;68.17
2841;BME280;53423;49.224;12.074;2023-03-23T04:00:58;97159.09;;;9.35;68.35
2841;BME280;53423;49.224;12.074;2023-03-23T04:03:25;97161.72;;;9.35;68.65
2841;BME280;53423;49.224;12.074;2023-03-23T04:05:53;97154.97;;;9.49;68.17
2841;BME280;53423;49.224;12.074;2023-03-23T04:08:21;97154.97;;;9.49;68.30
2841;BME280;53423;49.224;12.074;2023-03-23T04:10:49;97157.34;;;9.58;67.71
2841;BME280;53423;49.224;12.074;2023-03-23T04:13:17;97161.41;;;9.69;67.17
2841;BME280;53423;49.224;12.074;2023-03-23T04:15:44;97154.69;;;9.66;67.58
2841;BME280;53423;49.224;12.074;2023-03-23T04:18:12;97164.66;;;9.71;66.99
2841;BME280;53423;49.224;12.074;2023-03-23T04:20:41;97162.72;;;9.65;67.49
2841;BME280;53423;49.224;12.074;2023-03-23T04:23:08;97155.53;;;9.67;67.76
2841;BME280;53423;49.224;12.074;2023-03-23T04:25:35;97157.53;;;9.57;68.18
2841;BME280;53423;49.224;12.074;2023-03-23T04:28:03;97165.56;;;9.55;68.46
2841;BME280;53423;49.224;12.074;2023-03-23T04:30:30;97156.34;;;9.59;67.82
2841;BME280;53423;49.224;12.074;2023-03-23T04:32:57;97156.81;;;9.71;67.14
2841;BME280;53423;49.224;12.074;2023-03-23T04:35:27;97158.84;;;9.83;66.56
2841;BME280;53423;49.224;12.074;2023-03-23T04:37:54;97153.88;;;9.96;65.70
2841;BME280;53423;49.224;12.074;2023-03-23T04:40:22;97154.44;;;10.15;65.62
2841;BME280;53423;49.224;12.074;2023-03-23T04:42:49;97151.47;;;10.18;64.82
2841;BME280;53423;49.224;12.074;2023-03-23T04:45:21;97144.97;;;10.05;64.96
2841;BME280;53423;49.224;12.074;2023-03-23T04:47:48;97140.34;;;10.16;65.36
2841;BME280;53423;49.224;12.074;2023-03-23T04:50:20;97137.97;;;9.98;66.66
2841;BME280;53423;49.224;12.074;2023-03-23T04:52:49;97148.56;;;10.13;65.57
2841;BME280;53423;49.224;12.074;2023-03-23T04:55:18;97147.69;;;10.20;65.14
2841;BME280;53423;49.224;12.074;2023-03-23T04:57:45;97151.88;;;10.29;65.18
2841;BME280;53423;49.224;12.074;2023-03-23T05:00:13;97149.44;;;10.28;65.06
2841;BME280;53423;49.224;12.074;2023-03-23T05:02:44;97150.00;;;10.38;64.54
2841;BME280;53423;49.224;12.074;2023-03-23T05:05:13;97143.13;;;10.37;63.44
2841;BME280;53423;49.224;12.074;2023-03-23T05:07:41;97140.56;;;10.51;63.36
2841;BME280;53423;49.224;12.074;2023-03-23T05:10:10;97140.56;;;10.51;61.97
2841;BME280;53423;49.224;12.074;2023-03-23T05:12:38;97144.81;;;10.67;61.87
2841;BME280;53423;49.224;12.074;2023-03-23T05:15:06;97150.97;;;10.59;61.11
2841;BME280;53423;49.224;12.074;2023-03-23T05:17:34;97148.09;;;10.69;61.60
2841;BME280;53423;49.224;12.074;2023-03-23T05:20:04;97157.06;;;10.74;60.98
2841;BME280;53423;49.224;12.074;2023-03-23T05:22:33;97149.84;;;10.76;61.80
2841;BME280;53423;49.224;12.074;2023-03-23T05:25:02;97154.63;;;10.87;60.64
2841;BME280;53423;49.224;12.074;2023-03-23T05:27:30;97161.72;;;10.64;60.93
2841;BME280;53423;49.224;12.074;2023-03-23T05:29:58;97157.88;;;10.75;61.37
2841;BME280;53423;49.224;12.074;2023-03-23T05:32:26;97148.94;;;10.84;61.55
2841;BME280;53423;49.224;12.074;2023-03-23T05:34:56;97152.81;;;10.73;59.83
2841;BME280;53423;49.224;12.074;2023-03-23T05:37:25;97152.81;;;10.73;60.75
2841;BME280;53423;49.224;12.074;2023-03-23T05:39:54;97165.84;;;10.81;60.29
2841;BME280;53423;49.224;12.074;2023-03-23T05:42:21;97168.75;;;10.86;60.78
2841;BME280;53423;49.224;12.074;2023-03-23T05:44:48;97162.31;;;10.89;60.35
2841;BME280;53423;49.224;12.074;2023-03-23T05:47:15;97171.34;;;10.72;60.81
2841;BME280;53423;49.224;12.074;2023-03-23T05:49:42;97163.91;;;10.75;60.39
2841;BME280;53423;49.224;12.074;2023-03-23T05:52:08;97166.16;;;10.64;60.82
2841;BME280;53423;49.224;12.074;2023-03-23T05:54:37;97179.38;;;10.33;61.69
2841;BME280;53423;49.224;12.074;2023-03-23T05:57:04;97171.31;;;10.35;60.81
2841;BME280;53423;49.224;12.074;2023-03-23T05:59:31;97183.00;;;10.24;61.66
2841;BME280;53423;49.224;12.074;2023-03-23T06:01:58;97167.88;;;10.34;61.29
2841;BME280;53423;49.224;12.074;2023-03-23T06:04:26;97164.16;;;10.51;61.71
2841;BME280;53423;49.224;12.074;2023-03-23T06:06:53;97168.28;;;10.46;60.43
2841;BME280;53423;49.224;12.074;2023-03-23T06:09:20;97159.84;;;10.73;60.16
2841;BME280;53423;49.224;12.074;2023-03-23T06:11:50;97168.28;;;10.83;59.75
2841;BME280;53423;49.224;12.074;2023-03-23T06:14:17;97163.31;;;11.02;59.48
2841;BME280;53423;49.224;12.074;2023-03-23T06:16:44;97166.31;;;11.14;59.31
2841;BME280;53423;49.224;12.074;2023-03-23T06:19:10;97161.72;;;11.31;59.54
2841;BME280;53423;49.224;12.074;2023-03-23T06:21:37;97152.09;;;11.38;58.00
2841;BME280;53423;49.224;12.074;2023-03-23T06:24:05;97158.88;;;11.61;58.12
2841;BME280;53423;49.224;12.074;2023-03-23T06:26:34;97148.13;;;11.71;57.14
2841;BME280;53423;49.224;12.074;2023-03-23T06:29:05;97156.59;;;12.08;55.00
2841;BME280;53423;49.224;12.074;2023-03-23T06:31:38;97156.69;;;12.36;55.50
2841;BME280;53423;49.224;12.074;2023-03-23T06:34:06;97145.25;;;12.22;54.34
2841;BME280;53423;49.224;12.074;2023-03-23T06:36:32;97154.84;;;12.36;54.75
2841;BME280;53423;49.224;12.074;2023-03-23T06:39:00;97155.03;;;12.35;54.51
2841;BME280;53423;49.224;12.074;2023-03-23T06:41:29;97153.84;;;12.16;55.01
2841;BME280;53423;49.224;12.074;2023-03-23T06:43:56;97162.19;;;12.20;56.04
2841;BME280;53423;49.224;12.074;2023-03-23T06:46:25;97157.38;;;12.02;54.84
2841;BME280;53423;49.224;12.074;2023-03-23T06:48:52;97164.72;;;11.92;56.00
2841;BME280;53423;49.224;12.074;2023-03-23T06:51:19;97166.56;;;11.77;56.28
2841;BME280;53423;49.224;12.074;2023-03-23T06:53:45;97172.00;;;11.47;55.79
2841;BME280;53423;49.224;12.074;2023-03-23T06:56:12;97163.06;;;11.70;55.65
2841;BME280;53423;49.224;12.074;2023-03-23T06:58:40;97166.78;;;11.76;56.09
2841;BME280;53423;49.224;12.074;2023-03-23T07:01:08;97162.75;;;11.94;55.26
2841;BME280;53423;49.224;12.074;2023-03-23T07:03:36;97158.59;;;11.85;55.17
2841;BME280;53423;49.224;12.074;2023-03-23T07:06:03;97155.22;;;11.91;56.04
2841;BME280;53423;49.224;12.074;2023-03-23T07:08:31;97154.69;;;11.96;55.55
2841;BME280;53423;49.224;12.074;2023-03-23T07:10:57;97150.84;;;11.98;55.68
2841;BME280;53423;49.224;12.074;2023-03-23T07:13:25;97148.09;;;12.06;55.56
2841;BME280;53423;49.224;12.074;2023-03-23T07:15:52;97140.47;;;12.11;55.46
2841;BME280;53423;49.224;12.074;2023-03-23T07:18:20;97148.28;;;12.05;55.75
2841;BME280;53423;49.224;12.074;2023-03-23T07:20:49;97155.94;;;12.21;55.15
2841;BME280;53423;49.224;12.074;2023-03-23T07:23:16;97161.13;;;12.35;55.44
2841;BME280;53423;49.224;12.074;2023-03-23T07:25:43;97159.88;;;12.52;54.40
2841;BME280;53423;49.224;12.074;2023-03-23T07:28:11;97164.56;;;12.57;53.85
2841;BME280;53423;49.224;12.074;2023-03-23T07:30:38;97155.53;;;12.66;53.50
2841;BME280;53423;49.224;12.074;2023-03-23T07:33:06;97170.94;;;12.69;54.17
2841;BME280;53423;49.224;12.074;2023-03-23T07:35:33;97167.38;;;12.77;54.31
2841;BME280;53423;49.224;12.074;2023-03-23T07:38:03;97160.50;;;12.82;54.03
2841;BME280;53423;49.224;12.074;2023-03-23T07:40:30;97157.91;;;12.61;54.19
2841;BME280;53423;49.224;12.074;2023-03-23T07:42:59;97151.25;;;12.65;54.93
2841;BME280;53423;49.224;12.074;2023-03-23T07:45:27;97152.41;;;12.56;54.30
2841;BME280;53423;49.224;12.074;2023-03-23T07:47:54;97158.06;;;12.32;56.32
2841;BME280;53423;49.224;12.074;2023-03-23T07:50:21;97158.16;;;12.45;55.40
2841;BME280;53423;49.224;12.074;2023-03-23T07:52:50;97163.66;;;12.71;54.94
2841;BME280;53423;49.224;12.074;2023-03-23T07:55:18;97170.19;;;12.54;54.27
2841;BME280;53423;49.224;12.074;2023-03-23T07:57:46;97175.31;;;12.62;54.80
2841;BME280;53423;49.224;12.074;2023-03-23T08:00:14;97179.75;;;12.83;54.52
2841;BME280;53423;49.224;12.074;2023-03-23T08:02:44;97185.47;;;12.93;54.54
2841;BME280;53423;49.224;12.074;2023-03-23T08:05:11;97184.75;;;12.78;54.25
2841;BME280;53423;49.224;12.074;2023-03-23T08:07:39;97187.66;;;12.62;55.67
2841;BME280;53423;49.224;12.074;2023-03-23T08:10:08;97191.63;;;12.79;55.42
2841;BME280;53423;49.224;12.074;2023-03-23T08:12:39;97191.69;;;13.06;53.86
2841;BME280;53423;49.224;12.074;2023-03-23T08:15:07;97193.53;;;12.85;54.61
2841;BME280;53423;49.224;12.074;2023-03-23T08:17:35;97195.22;;;12.71;55.83
2841;BME280;53423;49.224;12.074;2023-03-23T08:20:02;97195.59;;;12.68;56.11
2841;BME280;53423;49.224;12.074;2023-03-23T08:22:38;97191.44;;;13.01;55.31
2841;BME280;53423;49.224;12.074;2023-03-23T08:25:06;97191.44;;;13.29;54.28
2841;BME280;53423;49.224;12.074;2023-03-23T08:27:34;97190.97;;;12.98;54.31
2841;BME280;53423;49.224;12.074;2023-03-23T08:30:03;97195.84;;;13.22;54.48
2841;BME280;53423;49.224;12.074;2023-03-23T08:32:32;97190.56;;;13.56;54.19
2841;BME280;53423;49.224;12.074;2023-03-23T08:34:59;97192.78;;;13.52;53.49
2841;BME280;53423;49.224;12.074;2023-03-23T08:37:26;97189.22;;;13.73;53.40
2841;BME280;53423;49.224;12.074;2023-03-23T08:39:54;97187.91;;;13.49;54.54
2841;BME280;53423;49.224;12.074;2023-03-23T08:42:22;97194.09;;;13.76;54.02
2841;BME280;53423;49.224;12.074;2023-03-23T08:44:50;97196.44;;;13.58;53.47
2841;BME280;53423;49.224;12.074;2023-03-23T08:47:18;97191.63;;;13.68;53.82
2841;BME280;53423;49.224;12.074;2023-03-23T08:49:45;97187.94;;;14.10;52.59
2841;BME280;53423;49.224;12.074;2023-03-23T08:52:12;97197.91;;;14.14;52.24
2841;BME280;53423;49.224;12.074;2023-03-23T08:54:38;97201.94;;;14.04;52.67
2841;BME280;53423;49.224;12.074;2023-03-23T08:57:06;97206.72;;;14.41;53.50
2841;BME280;53423;49.224;12.074;2023-03-23T08:59:33;97207.56;;;14.61;52.04
2841;BME280;53423;49.224;12.074;2023-03-23T09:02:00;97205.16;;;14.85;51.90
2841;BME280;53423;49.224;12.074;2023-03-23T09:04:28;97219.97;;;14.93;50.74
2841;BME280;53423;49.224;12.074;2023-03-23T09:06:55;97222.13;;;14.37;50.92
2841;BME280;53423;49.224;12.074;2023-03-23T09:09:23;97218.75;;;14.69;52.41
2841;BME280;53423;49.224;12.074;2023-03-23T09:11:50;97217.53;;;14.72;51.13
2841;BME280;53423;49.224;12.074;2023-03-23T09:14:17;97216.31;;;14.87;51.46
2841;BME280;53423;49.224;12.074;2023-03-23T09:16:44;97211.88;;;14.94;51.61
2841;BME280;53423;49.224;12.074;2023-03-23T09:19:11;97213.69;;;15.14;50.98
2841;BME280;53423;49.224;12.074;2023-03-23T09:21:40;97211.84;;;15.21;51.54
2841;BME280;53423;49.224;12.074;2023-03-23T09:24:07;97215.72;;;15.12;50.05
2841;BME280;53423;49.224;12.074;2023-03-23T09:26:34;97221.19;;;14.84;51.63
2841;BME280;53423;49.224;12.074;2023-03-23T09:29:01;97220.56;;;14.82;52.23
2841;BME280;53423;49.224;12.074;2023-03-23T09:31:28;97217.34;;;14.93;51.59
2841;BME280;53423;49.224;12.074;2023-03-23T09:33:57;97220.19;;;14.91;50.98
2841;BME280;53423;49.224;12.074;2023-03-23T09:36:25;97217.72;;;14.83;52.39
2841;BME280;53423;49.224;12.074;2023-03-23T09:38:56;97223.22;;;14.88;51.95
2841;BME280;53423;49.224;12.074;2023-03-23T09:41:43;97218.34;;;14.92;52.36
2841;BME280;53423;49.224;12.074;2023-03-23T09:44:21;97219.13;;;14.53;53.20
2841;BME280;53423;49.224;12.074;2023-03-23T09:46:54;97213.63;;;14.42;53.91
2841;BME280;53423;49.224;12.074;2023-03-23T09:49:25;97213.63;;;14.48;54.60
2841;BME280;53423;49.224;12.074;2023-03-23T09:51:57;97210.22;;;14.67;54.43
2841;BME280;53423;49.224;12.074;2023-03-23T09:54:27;97201.25;;;15.53;51.68
2841;BME280;53423;49.224;12.074;2023-03-23T09:56:55;97200.06;;;15.30;52.07
2841;BME280;53423;49.224;12.074;2023-03-23T09:59:27;97202.44;;;15.70;51.22
2841;BME280;53423;49.224;12.074;2023-03-23T10:01:59;97207.91;;;15.75;51.60
2841;BME280;53423;49.224;12.074;2023-03-23T10:04:36;97212.22;;;15.57;51.91
2841;BME280;53423;49.224;12.074;2023-03-23T10:07:09;97219.84;;;15.84;52.48
2841;BME280;53423;49.224;12.074;2023-03-23T10:09:39;97224.97;;;15.73;51.81
2841;BME280;53423;49.224;12.074;2023-03-23T10:12:13;97229.03;;;15.82;52.46
2841;BME280;53423;49.224;12.074;2023-03-23T10:14:53;97229.84;;;15.82;51.38
2841;BME280;53423;49.224;12.074;2023-03-23T10:17:27;97209.69;;;16.32;52.81
2841;BME280;53423;49.224;12.074;2023-03-23T10:20:01;97211.69;;;16.37;50.46
2841;BME280;53423;49.224;12.074;2023-03-23T10:22:38;97201.84;;;16.88;49.79
2841;BME280;53423;49.224;12.074;2023-03-23T10:25:15;97210.94;;;16.92;48.96
2841;BME280;53423;49.224;12.074;2023-03-23T10:27:47;97205.19;;;17.01;48.88
2841;BME280;53423;49.224;12.074;2023-03-23T10:30:20;97194.53;;;17.08;48.71
2841;BME280;53423;49.224;12.074;2023-03-23T10:32:52;97189.91;;;16.48;49.16
2841;BME280;53423;49.224;12.074;2023-03-23T10:35:25;97183.25;;;16.70;49.88
2841;BME280;53423;49.224;12.074;2023-03-23T10:37:58;97194.53;;;16.83;50.19
2841;BME280;53423;49.224;12.074;2023-03-23T10:40:30;97197.38;;;17.31;48.96
2841;BME280;53423;49.224;12.074;2023-03-23T10:42:58;97195.84;;;17.42;47.51
2841;BME280;53423;49.224;12.074;2023-03-23T10:45:27;97196.91;;;17.95;48.26
2841;BME280;53423;49.224;12.074;2023-03-23T10:47:57;97195.69;;;18.45;45.59
2841;BME280;53423;49.224;12.074;2023-03-23T10:50:28;97191.78;;;18.29;45.77
2841;BME280;53423;49.224;12.074;2023-03-23T10:52:57;97199.75;;;18.29;46.42
2841;BME280;53423;49.224;12.074;2023-03-23T10:55:37;97187.78;;;18.09;45.97
2841;BME280;53423;49.224;12.074;2023-03-23T10:58:08;97192.69;;;18.23;47.45
2841;BME280;53423;49.224;12.074;2023-03-23T11:00:41;97193.38;;;18.48;48.12
2841;BME280;53423;49.224;12.074;2023-03-23T11:06:09;97201.25;;;18.96;46.79
2841;BME280;53423;49.224;12.074;2023-03-23T11:08:38;97195.56;;;18.81;44.50
2841;BME280;53423;49.224;12.074;2023-03-23T11:11:15;97183.13;;;19.05;43.30
2841;BME280;53423;49.224;12.074;2023-03-23T11:13:44;97185.44;;;19.24;44.97
2841;BME280;53423;49.224;12.074;2023-03-23T11:16:22;97175.28;;;19.56;42.02
2841;BME280;53423;49.224;12.074;2023-03-23T11:18:49;97170.19;;;20.45;42.29
2841;BME280;53423;49.224;12.074;2023-03-23T11:21:19;97171.81;;;20.18;40.62
2841;BME280;53423;49.224;12.074;2023-03-23T11:23:49;97172.44;;;20.37;40.55
2841;BME280;53423;49.224;12.074;2023-03-23T11:26:21;97174.25;;;20.48;37.68
2841;BME280;53423;49.224;12.074;2023-03-23T11:28:56;97172.44;;;20.81;37.79
2841;BME280;53423;49.224;12.074;2023-03-23T11:31:27;97171.84;;;20.35;38.77
2841;BME280;53423;49.224;12.074;2023-03-23T11:33:57;97170.22;;;20.06;38.82
2841;BME280;53423;49.224;12.074;2023-03-23T11:36:31;97174.78;;;19.82;36.88
2841;BME280;53423;49.224;12.074;2023-03-23T11:38:59;97184.06;;;20.08;37.10
2841;BME280;53423;49.224;12.074;2023-03-23T11:41:32;97186.81;;;20.13;37.82
2841;BME280;53423;49.224;12.074;2023-03-23T11:44:04;97184.63;;;20.33;37.46
2841;BME280;53423;49.224;12.074;2023-03-23T11:46:42;97185.53;;;20.27;38.19
2841;BME280;53423;49.224;12.074;2023-03-23T11:49:18;97178.34;;;19.99;38.23
2841;BME280;53423;49.224;12.074;2023-03-23T11:51:49;97176.47;;;20.00;37.50
2841;BME280;53423;49.224;12.074;2023-03-23T11:54:24;97177.06;;;19.90;37.05
2841;BME280;53423;49.224;12.074;2023-03-23T11:56:56;97191.13;;;19.74;37.58
2841;BME280;53423;49.224;12.074;2023-03-23T11:59:28;97186.69;;;19.79;38.77
2841;BME280;53423;49.224;12.074;2023-03-23T12:02:05;97183.69;;;19.76;36.77
2841;BME280;53423;49.224;12.074;2023-03-23T12:04:53;97193.63;;;19.92;37.35
2841;BME280;53423;49.224;12.074;2023-03-23T12:07:36;97187.78;;;19.55;37.26
2841;BME280;53423;49.224;12.074;2023-03-23T12:10:23;97192.13;;;19.04;38.05
2841;BME280;53423;49.224;12.074;2023-03-23T12:13:01;97187.41;;;19.17;38.47
2841;BME280;53423;49.224;12.074;2023-03-23T12:15:33;97194.34;;;19.07;38.72
2841;BME280;53423;49.224;12.074;2023-03-23T12:18:12;97195.84;;;19.14;38.88
2841;BME280;53423;49.224;12.074;2023-03-23T12:20:52;97193.44;;;19.36;38.81
2841;BME280;53423;49.224;12.074;2023-03-23T12:23:24;97187.75;;;19.21;38.27
2841;BME280;53423;49.224;12.074;2023-03-23T12:26:07;97203.78;;;19.03;38.68
2841;BME280;53423;49.224;12.074;2023-03-23T12:28:49;97193.19;;;19.14;39.03
2841;BME280;53423;49.224;12.074;2023-03-23T12:31:25;97192.72;;;19.29;38.69
2841;BME280;53423;49.224;12.074;2023-03-23T12:34:02;97189.19;;;19.35;39.12
2841;BME280;53423;49.224;12.074;2023-03-23T12:36:41;97179.06;;;19.25;39.27
2841;BME280;53423;49.224;12.074;2023-03-23T12:39:39;97190.28;;;18.93;39.36
2841;BME280;53423;49.224;12.074;2023-03-23T12:42:15;97192.06;;;18.69;39.70
2841;BME280;53423;49.224;12.074;2023-03-23T12:44:52;97196.06;;;18.60;40.81
2841;BME280;53423;49.224;12.074;2023-03-23T12:47:39;97188.38;;;18.70;40.22
2841;BME280;53423;49.224;12.074;2023-03-23T12:50:15;97201.50;;;18.65;41.36
2841;BME280;53423;49.224;12.074;2023-03-23T12:52:50;97185.91;;;18.57;40.68
2841;BME280;53423;49.224;12.074;2023-03-23T12:55:23;97191.13;;;18.34;41.10
2841;BME280;53423;49.224;12.074;2023-03-23T12:57:55;97183.03;;;18.58;40.74
2841;BME280;53423;49.224;12.074;2023-03-23T13:00:29;97187.22;;;18.66;40.84
2841;BME280;53423;49.224;12.074;2023-03-23T13:03:01;97196.78;;;18.37;41.31
2841;BME280;53423;49.224;12.074;2023-03-23T13:05:42;97185.59;;;18.77;40.54
2841;BME280;53423;49.224;12.074;2023-03-23T13:08:14;97182.78;;;19.01;41.45
2841;BME280;53423;49.224;12.074;2023-03-23T13:10:45;97182.66;;;19.19;42.28
2841;BME280;53423;49.224;12.074;2023-03-23T13:13:17;97189.56;;;18.97;41.23
2841;BME280;53423;49.224;12.074;2023-03-23T13:15:55;97192.00;;;18.46;43.33
2841;BME280;53423;49.224;12.074;2023-03-23T13:18:37;97181.94;;;18.78;40.87
2841;BME280;53423;49.224;12.074;2023-03-23T13:21:14;97189.69;;;19.02;41.52
2841;BME280;53423;49.224;12.074;2023-03-23T13:23:45;97191.84;;;18.82;41.05
2841;BME280;53423;49.224;12.074;2023-03-23T13:26:16;97180.63;;;18.69;41.52
2841;BME280;53423;49.224;12.074;2023-03-23T13:28:57;97174.94;;;19.06;40.60
2841;BME280;53423;49.224;12.074;2023-03-23T13:31:27;97177.81;;;19.05;39.97
2841;BME280;53423;49.224;12.074;2023-03-23T13:34:02;97181.47;;;18.92;40.64
2841;BME280;53423;49.224;12.074;2023-03-23T13:36:33;97175.75;;;19.18;40.31